sensor_id;sensor_type;location;lat;lon;timestamp;temperature;humidity
32536;DHT22;18974;50.838;4.636;2023-06-01T00:00:50;16.70;99.90
32536;DHT22;18974;50.838;4.636;2023-06-01T00:03:16;16.70;99.90
32536;DHT22;18974;50.838;4.636;2023-06-01T00:05:42;16.60;99.90
32536;DHT22;18974;50.838;4.636;2023-06-01T00:08:07;16.60;99.90
32536;DHT22;18974;50.838;4.636;2023-06-01T00:10:33;16.60;99.90
32536;DHT22;18974;50.838;4.636;2023-06-01T00:12:58;16.60;99.90
32536;DHT22;18974;50.838;4.636;2023-06-01T00:15:25;16.50;99.90
32536;DHT22;18974;50.838;4.636;2023-06-01T00:17:51;16.50;99.90
32536;DHT22;18974;50.838;4.636;2023-06-01T00:20:18;16.40;99.90
32536;DHT22;18974;50.838;4.636;2023-06-01T00:22:44;16.40;99.90
32536;DHT22;18974;50.838;4.636;2023-06-01T00:25:09;16.30;99.90
32536;DHT22;18974;50.838;4.636;2023-06-01T00:27:35;16.20;99.90
32536;DHT22;18974;50.838;4.636;2023-06-01T00:30:02;16.10;99.90
32536;DHT22;18974;50.838;4.636;2023-06-01T00:32:27;16.10;99.90
32536;DHT22;18974;50.838;4.636;2023-06-01T00:34:53;16.10;99.90
32536;DHT22;18974;50.838;4.636;2023-06-01T00:37:19;15.90;99.90
32536;DHT22;18974;50.838;4.636;2023-06-01T00:39:44;16.00;99.90
32536;DHT22;18974;50.838;4.636;2023-06-01T00:42:10;16.00;99.90
32536;DHT22;18974;50.838;4.636;2023-06-01T00:44:36;15.90;99.90
32536;DHT22;18974;50.838;4.636;2023-06-01T00:47:01;15.90;99.90
32536;DHT22;18974;50.838;4.636;2023-06-01T00:49:27;15.80;99.90
32536;DHT22;18974;50.838;4.636;2023-06-01T00:51:53;15.80;99.90
32536;DHT22;18974;50.838;4.636;2023-06-01T00:54:19;15.70;99.90
32536;DHT22;18974;50.838;4.636;2023-06-01T00:56:45;15.60;99.90
32536;DHT22;18974;50.838;4.636;2023-06-01T00:59:12;15.60;99.90
32536;DHT22;18974;50.838;4.636;2023-06-01T01:01:38;15.60;99.90
32536;DHT22;18974;50.838;4.636;2023-06-01T01:04:06;15.60;99.90
32536;DHT22;18974;50.838;4.636;2023-06-01T01:06:56;15.50;99.90
32536;DHT22;18974;50.838;4.636;2023-06-01T01:12:32;15.50;99.90
32536;DHT22;18974;50.838;4.636;2023-06-01T01:17:42;15.50;99.90
32536;DHT22;18974;50.838;4.636;2023-06-01T01:20:15;15.40;99.90
32536;DHT22;18974;50.838;4.636;2023-06-01T01:28:53;15.30;99.90
32536;DHT22;18974;50.838;4.636;2023-06-01T01:31:24;15.20;99.90
32536;DHT22;18974;50.838;4.636;2023-06-01T01:33:53;15.20;99.90
32536;DHT22;18974;50.838;4.636;2023-06-01T01:36:19;15.10;99.90
32536;DHT22;18974;50.838;4.636;2023-06-01T01:38:45;15.10;99.90
32536;DHT22;18974;50.838;4.636;2023-06-01T01:41:12;15.20;99.90
32536;DHT22;18974;50.838;4.636;2023-06-01T01:43:38;15.20;99.90
32536;DHT22;18974;50.838;4.636;2023-06-01T01:46:29;15.10;99.90
32536;DHT22;18974;50.838;4.636;2023-06-01T01:51:31;15.00;99.90
32536;DHT22;18974;50.838;4.636;2023-06-01T01:53:59;14.90;99.90
32536;DHT22;18974;50.838;4.636;2023-06-01T01:56:26;14.90;99.90
32536;DHT22;18974;50.838;4.636;2023-06-01T01:58:53;14.80;99.90
32536;DHT22;18974;50.838;4.636;2023-06-01T02:01:20;14.90;99.90
32536;DHT22;18974;50.838;4.636;2023-06-01T02:03:46;14.80;99.90
32536;DHT22;18974;50.838;4.636;2023-06-01T02:06:12;14.80;99.90
32536;DHT22;18974;50.838;4.636;2023-06-01T02:08:37;14.80;99.90
32536;DHT22;18974;50.838;4.636;2023-06-01T02:11:03;14.80;99.90
32536;DHT22;18974;50.838;4.636;2023-06-01T02:13:29;14.80;99.90
32536;DHT22;18974;50.838;4.636;2023-06-01T02:15:55;14.70;99.90
32536;DHT22;18974;50.838;4.636;2023-06-01T02:18:20;14.70;99.90
32536;DHT22;18974;50.838;4.636;2023-06-01T02:20:46;14.60;99.90
32536;DHT22;18974;50.838;4.636;2023-06-01T02:23:11;14.60;99.90
32536;DHT22;18974;50.838;4.636;2023-06-01T02:25:37;14.60;99.90
32536;DHT22;18974;50.838;4.636;2023-06-01T02:28:03;14.60;99.90
32536;DHT22;18974;50.838;4.636;2023-06-01T02:30:28;14.50;99.90
32536;DHT22;18974;50.838;4.636;2023-06-01T02:32:54;14.50;99.90
32536;DHT22;18974;50.838;4.636;2023-06-01T02:35:20;14.40;99.90
32536;DHT22;18974;50.838;4.636;2023-06-01T02:37:46;14.30;99.90
32536;DHT22;18974;50.838;4.636;2023-06-01T02:40:11;14.30;99.90
32536;DHT22;18974;50.838;4.636;2023-06-01T02:42:38;14.30;99.90
32536;DHT22;18974;50.838;4.636;2023-06-01T02:45:05;14.20;99.90
32536;DHT22;18974;50.838;4.636;2023-06-01T02:47:31;14.20;99.90
32536;DHT22;18974;50.838;4.636;2023-06-01T02:49:57;14.20;99.90
32536;DHT22;18974;50.838;4.636;2023-06-01T02:52:22;14.20;99.90
32536;DHT22;18974;50.838;4.636;2023-06-01T02:54:48;14.10;99.90
32536;DHT22;18974;50.838;4.636;2023-06-01T02:57:13;14.00;99.90
32536;DHT22;18974;50.838;4.636;2023-06-01T02:59:39;14.10;99.90
32536;DHT22;18974;50.838;4.636;2023-06-01T03:02:05;14.10;99.90
32536;DHT22;18974;50.838;4.636;2023-06-01T03:04:31;14.10;99.90
32536;DHT22;18974;50.838;4.636;2023-06-01T03:06:58;14.00;99.90
32536;DHT22;18974;50.838;4.636;2023-06-01T03:09:24;14.00;99.90
32536;DHT22;18974;50.838;4.636;2023-06-01T03:11:50;14.00;99.90
32536;DHT22;18974;50.838;4.636;2023-06-01T03:14:16;13.90;99.90
32536;DHT22;18974;50.838;4.636;2023-06-01T03:16:41;13.90;99.90
32536;DHT22;18974;50.838;4.636;2023-06-01T03:19:07;13.80;99.90
32536;DHT22;18974;50.838;4.636;2023-06-01T03:21:33;13.70;99.90
32536;DHT22;18974;50.838;4.636;2023-06-01T03:23:59;13.70;99.90
32536;DHT22;18974;50.838;4.636;2023-06-01T03:26:25;13.70;99.90
32536;DHT22;18974;50.838;4.636;2023-06-01T03:28:50;13.70;99.90
32536;DHT22;18974;50.838;4.636;2023-06-01T03:31:16;13.60;99.90
32536;DHT22;18974;50.838;4.636;2023-06-01T03:33:42;13.60;99.90
32536;DHT22;18974;50.838;4.636;2023-06-01T03:36:08;13.60;99.90
32536;DHT22;18974;50.838;4.636;2023-06-01T03:38:33;13.50;99.90
32536;DHT22;18974;50.838;4.636;2023-06-01T03:41:00;13.40;99.90
32536;DHT22;18974;50.838;4.636;2023-06-01T03:43:26;13.50;99.90
32536;DHT22;18974;50.838;4.636;2023-06-01T03:45:52;13.50;99.90
32536;DHT22;18974;50.838;4.636;2023-06-01T03:48:18;13.50;99.90
32536;DHT22;18974;50.838;4.636;2023-06-01T03:50:43;13.60;99.90
32536;DHT22;18974;50.838;4.636;2023-06-01T03:53:09;13.50;99.90
32536;DHT22;18974;50.838;4.636;2023-06-01T03:55:34;13.40;99.90
32536;DHT22;18974;50.838;4.636;2023-06-01T03:58:01;13.40;99.90
32536;DHT22;18974;50.838;4.636;2023-06-01T04:00:28;13.40;99.90
32536;DHT22;18974;50.838;4.636;2023-06-01T04:02:55;13.40;99.90
32536;DHT22;18974;50.838;4.636;2023-06-01T04:05:22;13.40;99.90
32536;DHT22;18974;50.838;4.636;2023-06-01T04:07:50;13.50;99.90
32536;DHT22;18974;50.838;4.636;2023-06-01T04:10:16;13.40;99.90
32536;DHT22;18974;50.838;4.636;2023-06-01T04:12:44;13.40;99.90
32536;DHT22;18974;50.838;4.636;2023-06-01T04:15:10;13.40;99.90
32536;DHT22;18974;50.838;4.636;2023-06-01T04:17:38;13.40;99.90
32536;DHT22;18974;50.838;4.636;2023-06-01T04:20:05;13.30;99.90
32536;DHT22;18974;50.838;4.636;2023-06-01T04:22:32;13.40;99.90
32536;DHT22;18974;50.838;4.636;2023-06-01T04:24:58;13.30;99.90
32536;DHT22;18974;50.838;4.636;2023-06-01T04:27:23;13.40;99.90
32536;DHT22;18974;50.838;4.636;2023-06-01T04:29:50;13.40;99.90
32536;DHT22;18974;50.838;4.636;2023-06-01T04:32:17;13.40;99.90
32536;DHT22;18974;50.838;4.636;2023-06-01T04:34:47;13.40;99.90
32536;DHT22;18974;50.838;4.636;2023-06-01T04:37:16;13.40;99.90
32536;DHT22;18974;50.838;4.636;2023-06-01T04:39:45;13.40;99.90
32536;DHT22;18974;50.838;4.636;2023-06-01T04:42:14;13.40;99.90
32536;DHT22;18974;50.838;4.636;2023-06-01T04:44:42;13.40;99.90
32536;DHT22;18974;50.838;4.636;2023-06-01T04:47:08;13.40;99.90
32536;DHT22;18974;50.838;4.636;2023-06-01T04:49:34;13.50;99.90
32536;DHT22;18974;50.838;4.636;2023-06-01T04:52:01;13.50;99.90
32536;DHT22;18974;50.838;4.636;2023-06-01T04:54:27;13.50;99.90
32536;DHT22;18974;50.838;4.636;2023-06-01T04:56:53;13.50;99.90
32536;DHT22;18974;50.838;4.636;2023-06-01T04:59:19;13.40;99.90
32536;DHT22;18974;50.838;4.636;2023-06-01T05:01:46;13.50;99.90
32536;DHT22;18974;50.838;4.636;2023-06-01T05:04:12;13.70;99.90
32536;DHT22;18974;50.838;4.636;2023-06-01T05:06:37;13.70;99.90
32536;DHT22;18974;50.838;4.636;2023-06-01T05:09:03;13.80;99.90
32536;DHT22;18974;50.838;4.636;2023-06-01T05:11:30;13.80;99.90
32536;DHT22;18974;50.838;4.636;2023-06-01T05:13:56;13.90;99.90
32536;DHT22;18974;50.838;4.636;2023-06-01T05:16:27;13.90;99.90
32536;DHT22;18974;50.838;4.636;2023-06-01T05:18:53;13.90;99.90
32536;DHT22;18974;50.838;4.636;2023-06-01T05:21:19;13.90;99.90
32536;DHT22;18974;50.838;4.636;2023-06-01T05:23:44;13.80;99.90
32536;DHT22;18974;50.838;4.636;2023-06-01T05:26:10;13.80;99.90
32536;DHT22;18974;50.838;4.636;2023-06-01T05:28:36;13.90;99.90
32536;DHT22;18974;50.838;4.636;2023-06-01T05:31:02;13.90;99.90
32536;DHT22;18974;50.838;4.636;2023-06-01T05:33:28;13.90;99.90
32536;DHT22;18974;50.838;4.636;2023-06-01T05:35:53;13.80;99.90
32536;DHT22;18974;50.838;4.636;2023-06-01T05:38:19;13.70;99.90
32536;DHT22;18974;50.838;4.636;2023-06-01T05:40:45;13.70;99.90
32536;DHT22;18974;50.838;4.636;2023-06-01T05:43:11;13.70;99.90
32536;DHT22;18974;50.838;4.636;2023-06-01T05:45:37;13.80;99.90
32536;DHT22;18974;50.838;4.636;2023-06-01T05:48:03;13.90;99.90
32536;DHT22;18974;50.838;4.636;2023-06-01T05:50:28;14.00;99.90
32536;DHT22;18974;50.838;4.636;2023-06-01T05:52:54;14.00;99.90
32536;DHT22;18974;50.838;4.636;2023-06-01T05:55:20;14.00;99.90
32536;DHT22;18974;50.838;4.636;2023-06-01T05:57:45;14.00;99.90
32536;DHT22;18974;50.838;4.636;2023-06-01T06:00:12;13.90;99.90
32536;DHT22;18974;50.838;4.636;2023-06-01T06:02:39;13.80;99.90
32536;DHT22;18974;50.838;4.636;2023-06-01T06:05:07;13.90;99.90
32536;DHT22;18974;50.838;4.636;2023-06-01T06:07:34;14.10;99.90
32536;DHT22;18974;50.838;4.636;2023-06-01T06:09:59;14.20;99.90
32536;DHT22;18974;50.838;4.636;2023-06-01T06:12:25;14.40;99.90
32536;DHT22;18974;50.838;4.636;2023-06-01T06:14:51;14.40;99.90
32536;DHT22;18974;50.838;4.636;2023-06-01T06:17:16;14.30;99.90
32536;DHT22;18974;50.838;4.636;2023-06-01T06:19:42;14.40;99.90
32536;DHT22;18974;50.838;4.636;2023-06-01T06:22:09;14.40;99.90
32536;DHT22;18974;50.838;4.636;2023-06-01T06:24:35;14.40;99.90
32536;DHT22;18974;50.838;4.636;2023-06-01T06:27:00;14.40;99.90
32536;DHT22;18974;50.838;4.636;2023-06-01T06:29:27;14.40;99.90
32536;DHT22;18974;50.838;4.636;2023-06-01T06:31:53;14.40;99.90
32536;DHT22;18974;50.838;4.636;2023-06-01T06:34:18;14.40;99.90
32536;DHT22;18974;50.838;4.636;2023-06-01T06:36:44;14.40;99.90
32536;DHT22;18974;50.838;4.636;2023-06-01T06:39:10;14.40;99.90
32536;DHT22;18974;50.838;4.636;2023-06-01T06:41:36;14.50;99.90
32536;DHT22;18974;50.838;4.636;2023-06-01T06:44:01;14.50;99.90
32536;DHT22;18974;50.838;4.636;2023-06-01T06:46:27;14.50;99.90
32536;DHT22;18974;50.838;4.636;2023-06-01T06:48:53;14.50;99.90
32536;DHT22;18974;50.838;4.636;2023-06-01T06:51:18;14.50;99.90
32536;DHT22;18974;50.838;4.636;2023-06-01T06:53:44;14.50;99.90
32536;DHT22;18974;50.838;4.636;2023-06-01T06:56:10;14.60;99.90
32536;DHT22;18974;50.838;4.636;2023-06-01T06:58:35;14.50;99.90
32536;DHT22;18974;50.838;4.636;2023-06-01T07:01:01;14.70;99.90
32536;DHT22;18974;50.838;4.636;2023-06-01T07:03:31;14.80;99.90
32536;DHT22;18974;50.838;4.636;2023-06-01T07:05:57;14.70;99.90
32536;DHT22;18974;50.838;4.636;2023-06-01T07:08:22;14.80;99.90
32536;DHT22;18974;50.838;4.636;2023-06-01T07:10:48;14.90;99.90
32536;DHT22;18974;50.838;4.636;2023-06-01T07:13:14;15.00;99.90
32536;DHT22;18974;50.838;4.636;2023-06-01T07:15:39;15.20;99.90
32536;DHT22;18974;50.838;4.636;2023-06-01T07:18:05;15.30;99.90
32536;DHT22;18974;50.838;4.636;2023-06-01T07:20:35;15.40;99.90
32536;DHT22;18974;50.838;4.636;2023-06-01T07:23:01;15.50;99.90
32536;DHT22;18974;50.838;4.636;2023-06-01T07:25:27;15.50;99.90
32536;DHT22;18974;50.838;4.636;2023-06-01T07:27:52;15.70;99.90
32536;DHT22;18974;50.838;4.636;2023-06-01T07:30:21;15.80;99.90
32536;DHT22;18974;50.838;4.636;2023-06-01T07:32:47;15.80;99.90
32536;DHT22;18974;50.838;4.636;2023-06-01T07:35:13;15.80;99.90
32536;DHT22;18974;50.838;4.636;2023-06-01T07:37:39;16.00;99.90
32536;DHT22;18974;50.838;4.636;2023-06-01T07:40:06;16.20;99.90
32536;DHT22;18974;50.838;4.636;2023-06-01T07:42:33;16.30;99.90
32536;DHT22;18974;50.838;4.636;2023-06-01T07:44:58;16.40;99.90
32536;DHT22;18974;50.838;4.636;2023-06-01T07:47:24;16.80;99.90
32536;DHT22;18974;50.838;4.636;2023-06-01T07:49:51;17.10;99.90
32536;DHT22;18974;50.838;4.636;2023-06-01T07:52:17;17.10;99.90
32536;DHT22;18974;50.838;4.636;2023-06-01T07:54:42;16.90;99.90
32536;DHT22;18974;50.838;4.636;2023-06-01T07:57:08;16.70;99.90
32536;DHT22;18974;50.838;4.636;2023-06-01T07:59:34;16.60;99.90
32536;DHT22;18974;50.838;4.636;2023-06-01T08:02:00;16.50;99.90
32536;DHT22;18974;50.838;4.636;2023-06-01T08:04:26;16.40;99.90
32536;DHT22;18974;50.838;4.636;2023-06-01T08:06:52;16.60;99.90
32536;DHT22;18974;50.838;4.636;2023-06-01T08:09:22;16.80;99.90
32536;DHT22;18974;50.838;4.636;2023-06-01T08:11:50;17.20;99.90
32536;DHT22;18974;50.838;4.636;2023-06-01T08:14:16;17.70;99.90
32536;DHT22;18974;50.838;4.636;2023-06-01T08:16:42;18.20;99.90
32536;DHT22;18974;50.838;4.636;2023-06-01T08:19:08;18.20;99.90
32536;DHT22;18974;50.838;4.636;2023-06-01T08:21:34;17.90;99.90
32536;DHT22;18974;50.838;4.636;2023-06-01T08:24:00;17.40;99.90
32536;DHT22;18974;50.838;4.636;2023-06-01T08:26:27;17.30;99.90
32536;DHT22;18974;50.838;4.636;2023-06-01T08:28:53;17.30;99.90
32536;DHT22;18974;50.838;4.636;2023-06-01T08:31:23;17.30;99.90
32536;DHT22;18974;50.838;4.636;2023-06-01T08:33:50;17.60;99.90
32536;DHT22;18974;50.838;4.636;2023-06-01T08:36:16;17.50;99.90
32536;DHT22;18974;50.838;4.636;2023-06-01T08:38:42;17.40;99.90
32536;DHT22;18974;50.838;4.636;2023-06-01T08:41:19;17.40;99.90
32536;DHT22;18974;50.838;4.636;2023-06-01T08:43:54;17.30;99.90
32536;DHT22;18974;50.838;4.636;2023-06-01T08:46:25;17.20;99.90
32536;DHT22;18974;50.838;4.636;2023-06-01T08:48:53;17.40;99.90
32536;DHT22;18974;50.838;4.636;2023-06-01T08:51:21;17.40;99.90
32536;DHT22;18974;50.838;4.636;2023-06-01T08:53:49;17.70;99.90
32536;DHT22;18974;50.838;4.636;2023-06-01T08:56:15;17.90;99.90
32536;DHT22;18974;50.838;4.636;2023-06-01T08:58:41;18.00;99.90
32536;DHT22;18974;50.838;4.636;2023-06-01T09:01:08;18.10;99.90
32536;DHT22;18974;50.838;4.636;2023-06-01T09:03:34;18.10;99.90
32536;DHT22;18974;50.838;4.636;2023-06-01T09:05:59;18.20;99.90
32536;DHT22;18974;50.838;4.636;2023-06-01T09:08:25;18.30;99.90
32536;DHT22;18974;50.838;4.636;2023-06-01T09:10:51;18.40;99.90
32536;DHT22;18974;50.838;4.636;2023-06-01T09:13:40;18.50;99.90
32536;DHT22;18974;50.838;4.636;2023-06-01T09:16:06;18.60;99.90
32536;DHT22;18974;50.838;4.636;2023-06-01T09:18:32;18.40;99.90
32536;DHT22;18974;50.838;4.636;2023-06-01T09:21:14;18.60;99.90
32536;DHT22;18974;50.838;4.636;2023-06-01T09:23:40;18.80;99.90
32536;DHT22;18974;50.838;4.636;2023-06-01T09:26:17;18.80;99.90
32536;DHT22;18974;50.838;4.636;2023-06-01T09:31:41;19.10;99.90
32536;DHT22;18974;50.838;4.636;2023-06-01T09:34:08;19.30;99.90
32536;DHT22;18974;50.838;4.636;2023-06-01T09:36:36;19.40;99.90
32536;DHT22;18974;50.838;4.636;2023-06-01T09:39:09;19.70;99.90
32536;DHT22;18974;50.838;4.636;2023-06-01T09:41:57;19.70;99.90
32536;DHT22;18974;50.838;4.636;2023-06-01T09:44:34;20.00;99.90
32536;DHT22;18974;50.838;4.636;2023-06-01T09:47:01;19.90;99.90
32536;DHT22;18974;50.838;4.636;2023-06-01T09:54:31;20.30;99.90
32536;DHT22;18974;50.838;4.636;2023-06-01T09:56:59;20.40;99.90
32536;DHT22;18974;50.838;4.636;2023-06-01T09:59:26;20.50;99.90
32536;DHT22;18974;50.838;4.636;2023-06-01T10:01:56;20.50;99.90
32536;DHT22;18974;50.838;4.636;2023-06-01T10:04:24;20.60;99.90
32536;DHT22;18974;50.838;4.636;2023-06-01T10:06:52;20.80;99.90
32536;DHT22;18974;50.838;4.636;2023-06-01T10:09:19;21.00;99.90
32536;DHT22;18974;50.838;4.636;2023-06-01T10:11:50;20.90;99.90
32536;DHT22;18974;50.838;4.636;2023-06-01T10:14:16;20.90;99.90
32536;DHT22;18974;50.838;4.636;2023-06-01T10:16:42;21.20;99.90
32536;DHT22;18974;50.838;4.636;2023-06-01T10:19:09;21.20;99.90
32536;DHT22;18974;50.838;4.636;2023-06-01T10:21:36;21.30;99.00
32536;DHT22;18974;50.838;4.636;2023-06-01T10:24:03;21.60;98.60
32536;DHT22;18974;50.838;4.636;2023-06-01T10:26:32;21.70;99.00
32536;DHT22;18974;50.838;4.636;2023-06-01T10:29:00;21.90;98.70
32536;DHT22;18974;50.838;4.636;2023-06-01T10:31:40;21.90;98.10
32536;DHT22;18974;50.838;4.636;2023-06-01T10:34:10;22.00;98.00
32536;DHT22;18974;50.838;4.636;2023-06-01T10:39:30;22.10;97.60
32536;DHT22;18974;50.838;4.636;2023-06-01T10:41:57;22.20;97.20
32536;DHT22;18974;50.838;4.636;2023-06-01T10:52:28;22.40;96.20
32536;DHT22;18974;50.838;4.636;2023-06-01T10:57:34;22.60;95.70
32536;DHT22;18974;50.838;4.636;2023-06-01T11:02:48;22.70;95.30
32536;DHT22;18974;50.838;4.636;2023-06-01T11:05:45;22.90;95.90
32536;DHT22;18974;50.838;4.636;2023-06-01T11:10:55;23.40;94.50
32536;DHT22;18974;50.838;4.636;2023-06-01T11:13:35;23.20;94.30
32536;DHT22;18974;50.838;4.636;2023-06-01T11:18:47;23.20;94.10
32536;DHT22;18974;50.838;4.636;2023-06-01T11:21:17;23.30;93.80
32536;DHT22;18974;50.838;4.636;2023-06-01T11:23:44;23.10;94.60
32536;DHT22;18974;50.838;4.636;2023-06-01T11:26:18;23.30;94.50
32536;DHT22;18974;50.838;4.636;2023-06-01T11:28:45;23.50;94.00
32536;DHT22;18974;50.838;4.636;2023-06-01T11:31:13;23.60;94.00
32536;DHT22;18974;50.838;4.636;2023-06-01T11:33:40;23.90;93.00
32536;DHT22;18974;50.838;4.636;2023-06-01T11:36:08;24.20;93.30
32536;DHT22;18974;50.838;4.636;2023-06-01T11:38:38;24.10;92.90
32536;DHT22;18974;50.838;4.636;2023-06-01T11:41:05;24.00;92.50
32536;DHT22;18974;50.838;4.636;2023-06-01T11:43:32;24.20;93.90
32536;DHT22;18974;50.838;4.636;2023-06-01T11:46:02;24.20;92.60
32536;DHT22;18974;50.838;4.636;2023-06-01T11:48:28;24.10;92.40
32536;DHT22;18974;50.838;4.636;2023-06-01T11:50:54;24.10;93.00
32536;DHT22;18974;50.838;4.636;2023-06-01T11:53:24;24.10;93.10
32536;DHT22;18974;50.838;4.636;2023-06-01T11:55:51;24.10;92.90
32536;DHT22;18974;50.838;4.636;2023-06-01T11:58:26;24.20;93.50
32536;DHT22;18974;50.838;4.636;2023-06-01T12:00:53;24.50;92.90
32536;DHT22;18974;50.838;4.636;2023-06-01T12:03:18;24.70;92.10
32536;DHT22;18974;50.838;4.636;2023-06-01T12:05:45;24.60;93.00
32536;DHT22;18974;50.838;4.636;2023-06-01T12:08:19;24.50;92.20
32536;DHT22;18974;50.838;4.636;2023-06-01T12:10:46;24.50;92.40
32536;DHT22;18974;50.838;4.636;2023-06-01T12:13:13;24.40;92.60
32536;DHT22;18974;50.838;4.636;2023-06-01T12:15:39;24.60;92.70
32536;DHT22;18974;50.838;4.636;2023-06-01T12:18:05;24.60;92.00
32536;DHT22;18974;50.838;4.636;2023-06-01T12:20:33;24.60;92.10
32536;DHT22;18974;50.838;4.636;2023-06-01T12:23:02;24.60;91.50
32536;DHT22;18974;50.838;4.636;2023-06-01T12:25:31;24.60;91.60
32536;DHT22;18974;50.838;4.636;2023-06-01T12:28:07;24.70;90.90
32536;DHT22;18974;50.838;4.636;2023-06-01T12:30:34;24.70;91.10
32536;DHT22;18974;50.838;4.636;2023-06-01T12:33:00;24.90;90.80
32536;DHT22;18974;50.838;4.636;2023-06-01T12:35:26;25.00;90.60
32536;DHT22;18974;50.838;4.636;2023-06-01T12:38:10;25.20;90.70
32536;DHT22;18974;50.838;4.636;2023-06-01T12:40:36;25.10;89.40
32536;DHT22;18974;50.838;4.636;2023-06-01T12:43:03;25.10;90.30
32536;DHT22;18974;50.838;4.636;2023-06-01T12:45:35;25.20;90.20
32536;DHT22;18974;50.838;4.636;2023-06-01T12:48:07;25.30;90.40
32536;DHT22;18974;50.838;4.636;2023-06-01T12:50:33;25.50;88.80
32536;DHT22;18974;50.838;4.636;2023-06-01T12:52:58;25.70;90.20
32536;DHT22;18974;50.838;4.636;2023-06-01T12:55:24;25.50;89.10
32536;DHT22;18974;50.838;4.636;2023-06-01T12:57:53;25.50;88.50
32536;DHT22;18974;50.838;4.636;2023-06-01T13:00:19;25.50;89.60
32536;DHT22;18974;50.838;4.636;2023-06-01T13:02:46;25.50;90.30
32536;DHT22;18974;50.838;4.636;2023-06-01T13:05:16;25.30;90.50
32536;DHT22;18974;50.838;4.636;2023-06-01T13:07:43;25.20;90.40
32536;DHT22;18974;50.838;4.636;2023-06-01T13:10:10;25.20;90.40
32536;DHT22;18974;50.838;4.636;2023-06-01T13:12:36;25.50;91.10
32536;DHT22;18974;50.838;4.636;2023-06-01T13:15:02;25.60;88.90
32536;DHT22;18974;50.838;4.636;2023-06-01T13:17:28;25.60;86.60
32536;DHT22;18974;50.838;4.636;2023-06-01T13:19:54;25.40;88.00
32536;DHT22;18974;50.838;4.636;2023-06-01T13:22:20;25.20;90.00
32536;DHT22;18974;50.838;4.636;2023-06-01T13:24:47;25.30;87.90
32536;DHT22;18974;50.838;4.636;2023-06-01T13:27:13;25.40;87.10
32536;DHT22;18974;50.838;4.636;2023-06-01T13:29:39;25.40;89.70
32536;DHT22;18974;50.838;4.636;2023-06-01T13:32:05;25.40;88.30
32536;DHT22;18974;50.838;4.636;2023-06-01T13:34:30;25.20;90.10
32536;DHT22;18974;50.838;4.636;2023-06-01T13:36:57;25.30;88.10
32536;DHT22;18974;50.838;4.636;2023-06-01T13:39:23;25.30;88.30
32536;DHT22;18974;50.838;4.636;2023-06-01T13:41:49;25.40;86.50
32536;DHT22;18974;50.838;4.636;2023-06-01T13:44:14;25.30;86.40
32536;DHT22;18974;50.838;4.636;2023-06-01T13:46:40;25.20;87.60
32536;DHT22;18974;50.838;4.636;2023-06-01T13:49:06;25.10;87.50
32536;DHT22;18974;50.838;4.636;2023-06-01T13:51:32;25.00;89.20
32536;DHT22;18974;50.838;4.636;2023-06-01T13:53:59;25.00;89.80
32536;DHT22;18974;50.838;4.636;2023-06-01T13:56:24;25.00;90.40
32536;DHT22;18974;50.838;4.636;2023-06-01T13:58:50;25.00;89.80
32536;DHT22;18974;50.838;4.636;2023-06-01T14:01:16;25.10;90.30
32536;DHT22;18974;50.838;4.636;2023-06-01T14:03:42;24.80;87.20
32536;DHT22;18974;50.838;4.636;2023-06-01T14:06:07;24.80;89.60
32536;DHT22;18974;50.838;4.636;2023-06-01T14:08:34;24.90;90.80
32536;DHT22;18974;50.838;4.636;2023-06-01T14:10:59;25.00;92.40
32536;DHT22;18974;50.838;4.636;2023-06-01T14:13:26;24.90;87.00
32536;DHT22;18974;50.838;4.636;2023-06-01T14:15:52;24.80;86.40
32536;DHT22;18974;50.838;4.636;2023-06-01T14:18:17;24.70;87.00
32536;DHT22;18974;50.838;4.636;2023-06-01T14:20:43;24.60;88.60
32536;DHT22;18974;50.838;4.636;2023-06-01T14:23:09;24.60;88.40
32536;DHT22;18974;50.838;4.636;2023-06-01T14:25:36;24.60;88.60
32536;DHT22;18974;50.838;4.636;2023-06-01T14:28:02;24.60;88.80
32536;DHT22;18974;50.838;4.636;2023-06-01T14:30:28;24.50;88.70
32536;DHT22;18974;50.838;4.636;2023-06-01T14:32:54;24.40;88.50
32536;DHT22;18974;50.838;4.636;2023-06-01T14:35:20;24.40;89.20
32536;DHT22;18974;50.838;4.636;2023-06-01T14:37:46;24.30;88.20
32536;DHT22;18974;50.838;4.636;2023-06-01T14:40:11;24.30;88.60
32536;DHT22;18974;50.838;4.636;2023-06-01T14:42:38;24.00;89.60
32536;DHT22;18974;50.838;4.636;2023-06-01T14:45:04;24.00;91.10
32536;DHT22;18974;50.838;4.636;2023-06-01T14:47:30;24.00;90.60
32536;DHT22;18974;50.838;4.636;2023-06-01T14:49:56;24.00;92.20
32536;DHT22;18974;50.838;4.636;2023-06-01T14:52:21;24.00;92.90
32536;DHT22;18974;50.838;4.636;2023-06-01T14:54:47;24.00;92.60
32536;DHT22;18974;50.838;4.636;2023-06-01T14:57:14;24.00;93.00
32536;DHT22;18974;50.838;4.636;2023-06-01T14:59:40;24.10;92.70
32536;DHT22;18974;50.838;4.636;2023-06-01T15:02:06;24.00;92.70
32536;DHT22;18974;50.838;4.636;2023-06-01T15:04:33;23.90;92.00
32536;DHT22;18974;50.838;4.636;2023-06-01T15:06:59;23.90;92.20
32536;DHT22;18974;50.838;4.636;2023-06-01T15:09:25;23.90;92.10
32536;DHT22;18974;50.838;4.636;2023-06-01T15:11:51;23.90;92.30
32536;DHT22;18974;50.838;4.636;2023-06-01T15:14:16;23.80;92.50
32536;DHT22;18974;50.838;4.636;2023-06-01T15:16:42;23.80;92.70
32536;DHT22;18974;50.838;4.636;2023-06-01T15:19:08;23.80;92.90
32536;DHT22;18974;50.838;4.636;2023-06-01T15:21:33;23.70;93.10
32536;DHT22;18974;50.838;4.636;2023-06-01T15:23:59;23.70;92.50
32536;DHT22;18974;50.838;4.636;2023-06-01T15:26:25;23.60;94.30
32536;DHT22;18974;50.838;4.636;2023-06-01T15:28:51;23.60;92.60
32536;DHT22;18974;50.838;4.636;2023-06-01T15:31:17;23.50;92.00
32536;DHT22;18974;50.838;4.636;2023-06-01T15:33:42;23.40;92.20
32536;DHT22;18974;50.838;4.636;2023-06-01T15:36:08;23.30;92.00
32536;DHT22;18974;50.838;4.636;2023-06-01T15:38:34;23.20;93.00
32536;DHT22;18974;50.838;4.636;2023-06-01T15:41:01;23.10;92.50
32536;DHT22;18974;50.838;4.636;2023-06-01T15:43:27;23.00;92.40
32536;DHT22;18974;50.838;4.636;2023-06-01T15:45:53;23.00;92.70
32536;DHT22;18974;50.838;4.636;2023-06-01T15:48:19;23.10;92.10
32536;DHT22;18974;50.838;4.636;2023-06-01T15:50:44;23.10;92.00
32536;DHT22;18974;50.838;4.636;2023-06-01T15:53:10;23.00;91.70
32536;DHT22;18974;50.838;4.636;2023-06-01T15:55:36;22.90;92.20
32536;DHT22;18974;50.838;4.636;2023-06-01T15:58:01;22.90;92.80
32536;DHT22;18974;50.838;4.636;2023-06-01T16:00:29;22.90;92.80
32536;DHT22;18974;50.838;4.636;2023-06-01T16:02:56;22.80;92.20
32536;DHT22;18974;50.838;4.636;2023-06-01T16:05:22;22.80;92.20
32536;DHT22;18974;50.838;4.636;2023-06-01T16:07:47;22.70;92.00
32536;DHT22;18974;50.838;4.636;2023-06-01T16:10:13;22.60;92.00
32536;DHT22;18974;50.838;4.636;2023-06-01T16:12:40;22.60;92.90